sensor_id;sensor_type;location;lat;lon;timestamp;P1;durP1;ratioP1;P2;durP2;ratioP2
59310;SDS011;45078;51.654;21.250;2022-09-30T00:01:16;16.23;;;6.10;;
59310;SDS011;45078;51.654;21.250;2022-09-30T00:03:42;14.15;;;5.20;;
59310;SDS011;45078;51.654;21.250;2022-09-30T00:06:08;9.70;;;5.32;;
59310;SDS011;45078;51.654;21.250;2022-09-30T00:08:38;17.45;;;5.70;;
59310;SDS011;45078;51.654;21.250;2022-09-30T00:11:05;9.55;;;4.55;;
59310;SDS011;45078;51.654;21.250;2022-09-30T00:13:36;16.35;;;5.22;;
59310;SDS011;45078;51.654;21.250;2022-09-30T00:16:04;12.63;;;5.45;;
59310;SDS011;45078;51.654;21.250;2022-09-30T00:18:31;12.48;;;5.65;;
59310;SDS011;45078;51.654;21.250;2022-09-30T00:20:57;15.98;;;6.18;;
59310;SDS011;45078;51.654;21.250;2022-09-30T00:23:24;11.10;;;5.00;;
59310;SDS011;45078;51.654;21.250;2022-09-30T00:25:50;16.10;;;5.53;;
59310;SDS011;45078;51.654;21.250;2022-09-30T00:28:21;12.95;;;6.55;;
59310;SDS011;45078;51.654;21.250;2022-09-30T00:30:47;10.07;;;4.88;;
59310;SDS011;45078;51.654;21.250;2022-09-30T00:33:12;13.00;;;5.18;;
59310;SDS011;45078;51.654;21.250;2022-09-30T00:35:38;12.68;;;5.32;;
59310;SDS011;45078;51.654;21.250;2022-09-30T00:38:04;10.10;;;5.57;;
59310;SDS011;45078;51.654;21.250;2022-09-30T00:40:30;9.02;;;5.32;;
59310;SDS011;45078;51.654;21.250;2022-09-30T00:42:56;11.65;;;6.07;;
59310;SDS011;45078;51.654;21.250;2022-09-30T00:45:24;10.85;;;5.85;;
59310;SDS011;45078;51.654;21.250;2022-09-30T00:48:07;9.02;;;4.57;;
59310;SDS011;45078;51.654;21.250;2022-09-30T00:50:40;11.43;;;5.35;;
59310;SDS011;45078;51.654;21.250;2022-09-30T01:01:01;8.48;;;4.75;;
59310;SDS011;45078;51.654;21.250;2022-09-30T01:03:28;10.68;;;6.22;;
59310;SDS011;45078;51.654;21.250;2022-09-30T01:06:01;16.85;;;5.57;;
59310;SDS011;45078;51.654;21.250;2022-09-30T01:08:27;10.57;;;4.57;;
59310;SDS011;45078;51.654;21.250;2022-09-30T01:10:56;10.93;;;5.75;;
59310;SDS011;45078;51.654;21.250;2022-09-30T01:13:22;12.82;;;5.15;;
59310;SDS011;45078;51.654;21.250;2022-09-30T01:30:19;16.65;;;5.38;;
59310;SDS011;45078;51.654;21.250;2022-09-30T01:53:38;8.80;;;5.00;;
59310;SDS011;45078;51.654;21.250;2022-09-30T02:01:37;7.25;;;4.32;;
59310;SDS011;45078;51.654;21.250;2022-09-30T02:04:11;8.35;;;4.63;;
59310;SDS011;45078;51.654;21.250;2022-09-30T02:06:52;14.68;;;4.93;;
59310;SDS011;45078;51.654;21.250;2022-09-30T02:11:57;8.52;;;4.93;;
59310;SDS011;45078;51.654;21.250;2022-09-30T02:14:28;16.15;;;5.70;;
59310;SDS011;45078;51.654;21.250;2022-09-30T02:17:05;9.38;;;4.63;;
59310;SDS011;45078;51.654;21.250;2022-09-30T02:22:09;5.47;;;3.75;;
59310;SDS011;45078;51.654;21.250;2022-09-30T02:24:46;21.33;;;4.80;;
59310;SDS011;45078;51.654;21.250;2022-09-30T02:27:18;5.68;;;3.45;;
59310;SDS011;45078;51.654;21.250;2022-09-30T02:29:54;9.50;;;4.65;;
59310;SDS011;45078;51.654;21.250;2022-09-30T02:32:23;9.43;;;4.30;;
59310;SDS011;45078;51.654;21.250;2022-09-30T02:35:00;7.57;;;4.47;;
59310;SDS011;45078;51.654;21.250;2022-09-30T02:37:38;8.60;;;4.85;;
59310;SDS011;45078;51.654;21.250;2022-09-30T02:42:36;14.20;;;5.50;;
59310;SDS011;45078;51.654;21.250;2022-09-30T02:45:07;6.80;;;4.20;;
59310;SDS011;45078;51.654;21.250;2022-09-30T02:50:12;5.55;;;3.85;;
59310;SDS011;45078;51.654;21.250;2022-09-30T02:58:33;7.85;;;3.95;;
59310;SDS011;45078;51.654;21.250;2022-09-30T03:01:02;10.73;;;4.85;;
59310;SDS011;45078;51.654;21.250;2022-09-30T03:03:31;7.57;;;4.35;;
59310;SDS011;45078;51.654;21.250;2022-09-30T03:06:01;8.68;;;5.25;;
59310;SDS011;45078;51.654;21.250;2022-09-30T03:08:27;11.60;;;4.63;;
59310;SDS011;45078;51.654;21.250;2022-09-30T03:10:53;10.23;;;5.00;;
59310;SDS011;45078;51.654;21.250;2022-09-30T03:13:24;17.92;;;5.47;;
59310;SDS011;45078;51.654;21.250;2022-09-30T03:16:28;11.15;;;5.75;;
59310;SDS011;45078;51.654;21.250;2022-09-30T03:29:31;15.45;;;5.05;;
59310;SDS011;45078;51.654;21.250;2022-09-30T03:32:24;9.38;;;4.57;;
59310;SDS011;45078;51.654;21.250;2022-09-30T03:37:46;10.45;;;4.95;;
59310;SDS011;45078;51.654;21.250;2022-09-30T03:45:40;11.93;;;5.72;;
59310;SDS011;45078;51.654;21.250;2022-09-30T03:48:14;8.48;;;4.55;;
59310;SDS011;45078;51.654;21.250;2022-09-30T03:50:41;16.58;;;5.47;;
59310;SDS011;45078;51.654;21.250;2022-09-30T03:53:09;10.02;;;5.20;;
59310;SDS011;45078;51.654;21.250;2022-09-30T03:56:10;8.77;;;4.55;;
59310;SDS011;45078;51.654;21.250;2022-09-30T03:58:28;18.73;;;5.43;;
59310;SDS011;45078;51.654;21.250;2022-09-30T04:00:54;7.22;;;4.28;;
59310;SDS011;45078;51.654;21.250;2022-09-30T04:03:21;9.50;;;5.22;;
59310;SDS011;45078;51.654;21.250;2022-09-30T04:05:47;9.77;;;5.07;;
59310;SDS011;45078;51.654;21.250;2022-09-30T04:08:14;9.10;;;5.40;;
59310;SDS011;45078;51.654;21.250;2022-09-30T04:10:40;8.48;;;5.05;;
59310;SDS011;45078;51.654;21.250;2022-09-30T04:13:08;10.70;;;5.45;;
59310;SDS011;45078;51.654;21.250;2022-09-30T04:15:35;11.93;;;5.63;;
59310;SDS011;45078;51.654;21.250;2022-09-30T04:18:01;7.75;;;4.68;;
59310;SDS011;45078;51.654;21.250;2022-09-30T04:20:28;10.20;;;4.95;;
59310;SDS011;45078;51.654;21.250;2022-09-30T04:22:58;12.98;;;5.47;;
59310;SDS011;45078;51.654;21.250;2022-09-30T04:25:26;9.88;;;5.20;;
59310;SDS011;45078;51.654;21.250;2022-09-30T04:27:53;8.88;;;4.82;;
59310;SDS011;45078;51.654;21.250;2022-09-30T04:30:19;14.25;;;5.57;;
59310;SDS011;45078;51.654;21.250;2022-09-30T04:32:45;9.98;;;5.50;;
59310;SDS011;45078;51.654;21.250;2022-09-30T04:35:11;8.52;;;4.60;;
59310;SDS011;45078;51.654;21.250;2022-09-30T04:37:41;12.15;;;4.97;;
59310;SDS011;45078;51.654;21.250;2022-09-30T04:40:08;18.27;;;6.00;;
59310;SDS011;45078;51.654;21.250;2022-09-30T04:42:36;15.65;;;6.38;;
59310;SDS011;45078;51.654;21.250;2022-09-30T04:45:03;9.30;;;5.97;;
59310;SDS011;45078;51.654;21.250;2022-09-30T04:47:29;11.82;;;5.40;;
59310;SDS011;45078;51.654;21.250;2022-09-30T04:49:55;8.23;;;6.10;;
59310;SDS011;45078;51.654;21.250;2022-09-30T04:52:21;11.52;;;6.00;;
59310;SDS011;45078;51.654;21.250;2022-09-30T04:54:47;8.57;;;5.20;;
59310;SDS011;45078;51.654;21.250;2022-09-30T04:57:13;12.20;;;5.63;;
59310;SDS011;45078;51.654;21.250;2022-09-30T04:59:39;9.85;;;5.80;;
59310;SDS011;45078;51.654;21.250;2022-09-30T05:02:05;8.57;;;5.18;;
59310;SDS011;45078;51.654;21.250;2022-09-30T05:04:31;10.02;;;5.18;;
59310;SDS011;45078;51.654;21.250;2022-09-30T05:06:58;12.50;;;6.80;;
59310;SDS011;45078;51.654;21.250;2022-09-30T05:09:25;20.85;;;11.20;;
59310;SDS011;45078;51.654;21.250;2022-09-30T05:11:51;26.67;;;12.45;;
59310;SDS011;45078;51.654;21.250;2022-09-30T05:14:17;30.67;;;11.73;;
59310;SDS011;45078;51.654;21.250;2022-09-30T05:16:43;28.77;;;12.45;;
59310;SDS011;45078;51.654;21.250;2022-09-30T05:19:08;23.80;;;10.70;;
59310;SDS011;45078;51.654;21.250;2022-09-30T05:21:34;27.40;;;11.07;;
59310;SDS011;45078;51.654;21.250;2022-09-30T05:24:01;24.42;;;9.68;;
59310;SDS011;45078;51.654;21.250;2022-09-30T05:26:27;18.83;;;9.27;;
59310;SDS011;45078;51.654;21.250;2022-09-30T05:28:53;20.23;;;6.57;;
59310;SDS011;45078;51.654;21.250;2022-09-30T05:31:18;12.80;;;7.03;;
59310;SDS011;45078;51.654;21.250;2022-09-30T05:33:47;10.05;;;6.20;;
59310;SDS011;45078;51.654;21.250;2022-09-30T05:36:13;12.60;;;6.63;;
59310;SDS011;45078;51.654;21.250;2022-09-30T05:38:40;13.88;;;6.68;;
59310;SDS011;45078;51.654;21.250;2022-09-30T05:41:10;11.85;;;7.13;;
59310;SDS011;45078;51.654;21.250;2022-09-30T05:43:38;12.82;;;6.70;;
59310;SDS011;45078;51.654;21.250;2022-09-30T05:46:06;11.98;;;6.60;;
59310;SDS011;45078;51.654;21.250;2022-09-30T05:48:32;11.68;;;6.25;;
59310;SDS011;45078;51.654;21.250;2022-09-30T05:50:58;12.27;;;5.90;;
59310;SDS011;45078;51.654;21.250;2022-09-30T05:53:26;13.93;;;6.70;;
59310;SDS011;45078;51.654;21.250;2022-09-30T05:55:52;13.93;;;6.45;;
59310;SDS011;45078;51.654;21.250;2022-09-30T05:58:18;9.88;;;6.15;;
59310;SDS011;45078;51.654;21.250;2022-09-30T06:00:45;13.00;;;6.55;;
59310;SDS011;45078;51.654;21.250;2022-09-30T06:03:13;16.08;;;6.47;;
59310;SDS011;45078;51.654;21.250;2022-09-30T06:05:39;13.82;;;6.72;;
59310;SDS011;45078;51.654;21.250;2022-09-30T06:08:05;14.85;;;7.32;;
59310;SDS011;45078;51.654;21.250;2022-09-30T06:10:34;16.00;;;7.20;;
59310;SDS011;45078;51.654;21.250;2022-09-30T06:13:03;13.95;;;7.40;;
59310;SDS011;45078;51.654;21.250;2022-09-30T06:15:29;18.85;;;7.43;;
59310;SDS011;45078;51.654;21.250;2022-09-30T06:17:56;15.13;;;7.28;;
59310;SDS011;45078;51.654;21.250;2022-09-30T06:20:22;14.75;;;7.65;;
59310;SDS011;45078;51.654;21.250;2022-09-30T06:22:48;17.33;;;9.50;;
59310;SDS011;45078;51.654;21.250;2022-09-30T06:25:14;16.48;;;8.38;;
59310;SDS011;45078;51.654;21.250;2022-09-30T06:27:43;20.67;;;10.32;;
59310;SDS011;45078;51.654;21.250;2022-09-30T06:30:10;19.35;;;10.30;;
59310;SDS011;45078;51.654;21.250;2022-09-30T06:32:36;24.80;;;10.00;;
59310;SDS011;45078;51.654;21.250;2022-09-30T06:35:02;19.77;;;10.90;;
59310;SDS011;45078;51.654;21.250;2022-09-30T06:37:28;16.92;;;9.30;;
59310;SDS011;45078;51.654;21.250;2022-09-30T06:39:54;20.35;;;10.90;;
59310;SDS011;45078;51.654;21.250;2022-09-30T06:42:20;22.15;;;11.07;;
59310;SDS011;45078;51.654;21.250;2022-09-30T06:44:47;28.30;;;13.43;;
59310;SDS011;45078;51.654;21.250;2022-09-30T06:47:13;23.35;;;11.90;;
59310;SDS011;45078;51.654;21.250;2022-09-30T06:49:39;27.45;;;11.40;;
59310;SDS011;45078;51.654;21.250;2022-09-30T06:52:07;20.52;;;11.15;;
59310;SDS011;45078;51.654;21.250;2022-09-30T06:54:37;21.33;;;10.40;;
59310;SDS011;45078;51.654;21.250;2022-09-30T06:57:07;26.15;;;12.75;;
59310;SDS011;45078;51.654;21.250;2022-09-30T06:59:33;24.40;;;12.68;;
59310;SDS011;45078;51.654;21.250;2022-09-30T07:01:59;15.13;;;8.68;;
59310;SDS011;45078;51.654;21.250;2022-09-30T07:04:25;17.45;;;9.77;;
59310;SDS011;45078;51.654;21.250;2022-09-30T07:06:51;22.40;;;11.32;;
59310;SDS011;45078;51.654;21.250;2022-09-30T07:09:17;22.65;;;10.75;;
59310;SDS011;45078;51.654;21.250;2022-09-30T07:11:43;22.70;;;11.15;;
59310;SDS011;45078;51.654;21.250;2022-09-30T07:14:08;20.17;;;10.40;;
59310;SDS011;45078;51.654;21.250;2022-09-30T07:16:37;21.85;;;11.85;;
59310;SDS011;45078;51.654;21.250;2022-09-30T07:19:03;19.73;;;9.95;;
59310;SDS011;45078;51.654;21.250;2022-09-30T07:21:31;20.00;;;10.50;;
59310;SDS011;45078;51.654;21.250;2022-09-30T07:23:57;19.73;;;10.15;;
59310;SDS011;45078;51.654;21.250;2022-09-30T07:26:24;23.30;;;10.63;;
59310;SDS011;45078;51.654;21.250;2022-09-30T07:28:51;19.25;;;9.90;;
59310;SDS011;45078;51.654;21.250;2022-09-30T07:33:45;13.68;;;8.50;;
59310;SDS011;45078;51.654;21.250;2022-09-30T07:36:11;19.17;;;9.85;;
59310;SDS011;45078;51.654;21.250;2022-09-30T07:38:40;14.95;;;8.95;;
59310;SDS011;45078;51.654;21.250;2022-09-30T07:41:08;19.20;;;9.85;;
59310;SDS011;45078;51.654;21.250;2022-09-30T07:43:42;17.60;;;9.07;;
59310;SDS011;45078;51.654;21.250;2022-09-30T07:46:10;19.02;;;9.98;;
59310;SDS011;45078;51.654;21.250;2022-09-30T07:48:37;18.63;;;9.32;;
59310;SDS011;45078;51.654;21.250;2022-09-30T07:51:04;18.88;;;9.60;;
59310;SDS011;45078;51.654;21.250;2022-09-30T07:53:30;19.60;;;9.63;;
59310;SDS011;45078;51.654;21.250;2022-09-30T07:55:56;15.88;;;9.70;;
59310;SDS011;45078;51.654;21.250;2022-09-30T07:58:26;16.38;;;8.73;;
59310;SDS011;45078;51.654;21.250;2022-09-30T08:00:51;19.55;;;9.52;;
59310;SDS011;45078;51.654;21.250;2022-09-30T08:03:17;18.50;;;9.85;;
59310;SDS011;45078;51.654;21.250;2022-09-30T08:05:43;15.10;;;8.65;;
59310;SDS011;45078;51.654;21.250;2022-09-30T08:08:10;18.50;;;9.98;;
59310;SDS011;45078;51.654;21.250;2022-09-30T08:10:37;15.57;;;8.18;;
59310;SDS011;45078;51.654;21.250;2022-09-30T08:13:02;17.98;;;9.13;;
59310;SDS011;45078;51.654;21.250;2022-09-30T08:15:28;13.80;;;7.75;;
59310;SDS011;45078;51.654;21.250;2022-09-30T08:17:55;14.25;;;8.45;;
59310;SDS011;45078;51.654;21.250;2022-09-30T08:20:21;14.55;;;7.68;;
59310;SDS011;45078;51.654;21.250;2022-09-30T08:22:47;13.70;;;7.97;;
59310;SDS011;45078;51.654;21.250;2022-09-30T08:25:17;17.98;;;9.05;;
59310;SDS011;45078;51.654;21.250;2022-09-30T08:27:42;13.88;;;8.13;;
59310;SDS011;45078;51.654;21.250;2022-09-30T08:30:08;13.48;;;8.43;;
59310;SDS011;45078;51.654;21.250;2022-09-30T08:32:34;15.68;;;7.63;;
59310;SDS011;45078;51.654;21.250;2022-09-30T08:35:00;14.75;;;7.72;;
59310;SDS011;45078;51.654;21.250;2022-09-30T08:37:26;15.70;;;7.30;;
59310;SDS011;45078;51.654;21.250;2022-09-30T08:39:52;15.57;;;7.68;;
59310;SDS011;45078;51.654;21.250;2022-09-30T08:47:56;16.25;;;6.95;;
59310;SDS011;45078;51.654;21.250;2022-09-30T08:53:35;11.23;;;6.15;;
59310;SDS011;45078;51.654;21.250;2022-09-30T08:56:05;12.10;;;6.47;;
59310;SDS011;45078;51.654;21.250;2022-09-30T08:58:32;14.73;;;7.53;;
59310;SDS011;45078;51.654;21.250;2022-09-30T09:01:04;10.75;;;5.90;;
59310;SDS011;45078;51.654;21.250;2022-09-30T09:03:31;12.20;;;6.43;;
59310;SDS011;45078;51.654;21.250;2022-09-30T09:06:00;13.50;;;6.20;;
59310;SDS011;45078;51.654;21.250;2022-09-30T09:11:26;15.60;;;5.85;;
59310;SDS011;45078;51.654;21.250;2022-09-30T09:17:00;10.48;;;5.68;;
59310;SDS011;45078;51.654;21.250;2022-09-30T09:20:31;10.73;;;6.03;;
59310;SDS011;45078;51.654;21.250;2022-09-30T09:22:43;10.35;;;5.60;;
59310;SDS011;45078;51.654;21.250;2022-09-30T09:25:16;11.02;;;4.65;;
59310;SDS011;45078;51.654;21.250;2022-09-30T09:30:22;11.18;;;5.95;;
59310;SDS011;45078;51.654;21.250;2022-09-30T09:32:53;10.02;;;5.72;;
59310;SDS011;45078;51.654;21.250;2022-09-30T09:49:25;13.82;;;5.65;;
59310;SDS011;45078;51.654;21.250;2022-09-30T09:54:19;19.38;;;9.77;;
59310;SDS011;45078;51.654;21.250;2022-09-30T09:56:46;13.95;;;7.55;;
59310;SDS011;45078;51.654;21.250;2022-09-30T09:59:12;9.40;;;5.53;;
59310;SDS011;45078;51.654;21.250;2022-09-30T10:01:43;11.95;;;4.88;;
59310;SDS011;45078;51.654;21.250;2022-09-30T10:04:13;9.20;;;5.30;;
59310;SDS011;45078;51.654;21.250;2022-09-30T10:06:50;8.60;;;4.35;;
59310;SDS011;45078;51.654;21.250;2022-09-30T10:09:35;8.27;;;4.78;;
59310;SDS011;45078;51.654;21.250;2022-09-30T10:14:31;10.77;;;5.85;;
59310;SDS011;45078;51.654;21.250;2022-09-30T10:17:00;11.80;;;4.63;;
59310;SDS011;45078;51.654;21.250;2022-09-30T10:19:28;18.63;;;8.27;;
59310;SDS011;45078;51.654;21.250;2022-09-30T10:24:36;9.82;;;5.47;;
59310;SDS011;45078;51.654;21.250;2022-09-30T10:27:03;11.07;;;4.93;;
59310;SDS011;45078;51.654;21.250;2022-09-30T10:29:49;13.45;;;6.15;;
59310;SDS011;45078;51.654;21.250;2022-09-30T10:32:15;10.10;;;5.18;;
59310;SDS011;45078;51.654;21.250;2022-09-30T10:34:41;11.25;;;5.70;;
59310;SDS011;45078;51.654;21.250;2022-09-30T10:37:22;7.18;;;4.00;;
59310;SDS011;45078;51.654;21.250;2022-09-30T10:39:59;8.57;;;4.72;;
59310;SDS011;45078;51.654;21.250;2022-09-30T10:42:26;7.10;;;4.57;;
59310;SDS011;45078;51.654;21.250;2022-09-30T10:48:02;6.97;;;4.22;;
59310;SDS011;45078;51.654;21.250;2022-09-30T10:50:31;7.88;;;4.30;;
59310;SDS011;45078;51.654;21.250;2022-09-30T10:53:20;9.43;;;3.70;;
59310;SDS011;45078;51.654;21.250;2022-09-30T10:55:48;7.40;;;4.40;;
59310;SDS011;45078;51.654;21.250;2022-09-30T10:58:24;9.15;;;3.72;;
59310;SDS011;45078;51.654;21.250;2022-09-30T11:06:43;7.13;;;4.25;;
59310;SDS011;45078;51.654;21.250;2022-09-30T11:14:56;8.25;;;4.53;;
59310;SDS011;45078;51.654;21.250;2022-09-30T11:17:30;10.43;;;5.18;;
59310;SDS011;45078;51.654;21.250;2022-09-30T11:20:23;7.32;;;4.05;;
59310;SDS011;45078;51.654;21.250;2022-09-30T11:23:09;8.57;;;4.55;;
59310;SDS011;45078;51.654;21.250;2022-09-30T11:25:48;7.30;;;4.38;;
59310;SDS011;45078;51.654;21.250;2022-09-30T11:39:36;10.57;;;5.38;;
59310;SDS011;45078;51.654;21.250;2022-09-30T11:42:16;15.68;;;7.63;;
59310;SDS011;45078;51.654;21.250;2022-09-30T11:45:02;12.95;;;5.97;;
59310;SDS011;45078;51.654;21.250;2022-09-30T11:53:21;10.48;;;5.78;;
59310;SDS011;45078;51.654;21.250;2022-09-30T11:58:48;8.63;;;5.20;;
59310;SDS011;45078;51.654;21.250;2022-09-30T12:01:28;12.65;;;5.72;;
59310;SDS011;45078;51.654;21.250;2022-09-30T12:04:02;9.27;;;5.47;;
59310;SDS011;45078;51.654;21.250;2022-09-30T12:06:36;8.63;;;5.53;;
59310;SDS011;45078;51.654;21.250;2022-09-30T12:09:26;12.00;;;6.07;;
59310;SDS011;45078;51.654;21.250;2022-09-30T12:12:00;9.90;;;5.35;;
59310;SDS011;45078;51.654;21.250;2022-09-30T12:14:48;10.90;;;6.65;;
59310;SDS011;45078;51.654;21.250;2022-09-30T12:17:40;10.77;;;5.78;;
59310;SDS011;45078;51.654;21.250;2022-09-30T12:22:48;11.25;;;5.20;;
59310;SDS011;45078;51.654;21.250;2022-09-30T12:25:20;13.20;;;5.75;;
59310;SDS011;45078;51.654;21.250;2022-09-30T12:27:56;10.80;;;5.35;;
59310;SDS011;45078;51.654;21.250;2022-09-30T12:30:46;9.20;;;5.50;;
59310;SDS011;45078;51.654;21.250;2022-09-30T12:46:47;9.73;;;5.47;;
59310;SDS011;45078;51.654;21.250;2022-09-30T12:49:38;14.27;;;6.07;;
59310;SDS011;45078;51.654;21.250;2022-09-30T12:52:06;12.55;;;5.45;;
59310;SDS011;45078;51.654;21.250;2022-09-30T12:54:40;10.40;;;5.95;;
59310;SDS011;45078;51.654;21.250;2022-09-30T12:59:48;10.82;;;5.57;;
59310;SDS011;45078;51.654;21.250;2022-09-30T13:02:33;10.13;;;5.72;;
59310;SDS011;45078;51.654;21.250;2022-09-30T13:10:31;8.98;;;4.82;;
59310;SDS011;45078;51.654;21.250;2022-09-30T13:15:48;9.48;;;5.75;;
59310;SDS011;45078;51.654;21.250;2022-09-30T13:28:54;16.85;;;7.28;;
59310;SDS011;45078;51.654;21.250;2022-09-30T13:34:23;8.75;;;5.43;;
59310;SDS011;45078;51.654;21.250;2022-09-30T13:39:30;22.48;;;7.20;;
59310;SDS011;45078;51.654;21.250;2022-09-30T13:47:32;10.35;;;5.63;;
59310;SDS011;45078;51.654;21.250;2022-09-30T13:50:28;9.43;;;5.43;;
59310;SDS011;45078;51.654;21.250;2022-09-30T13:53:01;9.90;;;6.00;;
59310;SDS011;45078;51.654;21.250;2022-09-30T13:55:40;10.13;;;5.40;;
59310;SDS011;45078;51.654;21.250;2022-09-30T13:58:24;10.70;;;5.50;;
59310;SDS011;45078;51.654;21.250;2022-09-30T14:20:39;10.70;;;5.95;;
59310;SDS011;45078;51.654;21.250;2022-09-30T14:23:26;18.75;;;6.10;;
59310;SDS011;45078;51.654;21.250;2022-09-30T14:28:35;10.63;;;6.18;;
59310;SDS011;45078;51.654;21.250;2022-09-30T14:31:21;13.27;;;6.72;;
59310;SDS011;45078;51.654;21.250;2022-09-30T14:33:47;11.85;;;6.60;;
59310;SDS011;45078;51.654;21.250;2022-09-30T14:36:32;21.92;;;9.57;;
59310;SDS011;45078;51.654;21.250;2022-09-30T14:38:58;15.00;;;6.80;;
59310;SDS011;45078;51.654;21.250;2022-09-30T14:41:28;15.95;;;7.90;;
59310;SDS011;45078;51.654;21.250;2022-09-30T14:43:56;12.48;;;6.97;;
59310;SDS011;45078;51.654;21.250;2022-09-30T14:49:11;14.10;;;6.80;;
59310;SDS011;45078;51.654;21.250;2022-09-30T14:51:41;13.68;;;6.55;;
59310;SDS011;45078;51.654;21.250;2022-09-30T14:54:22;12.70;;;7.70;;
59310;SDS011;45078;51.654;21.250;2022-09-30T14:56:59;15.10;;;7.45;;
59310;SDS011;45078;51.654;21.250;2022-09-30T14:59:31;14.57;;;7.25;;
59310;SDS011;45078;51.654;21.250;2022-09-30T15:04:50;13.45;;;7.18;;
59310;SDS011;45078;51.654;21.250;2022-09-30T15:07:18;16.52;;;7.50;;
59310;SDS011;45078;51.654;21.250;2022-09-30T15:09:45;14.25;;;6.90;;
59310;SDS011;45078;51.654;21.250;2022-09-30T15:12:16;15.77;;;7.53;;
59310;SDS011;45078;51.654;21.250;2022-09-30T15:14:51;11.32;;;6.30;;
59310;SDS011;45078;51.654;21.250;2022-09-30T15:19:52;14.95;;;7.85;;
59310;SDS011;45078;51.654;21.250;2022-09-30T15:22:20;15.77;;;7.05;;
59310;SDS011;45078;51.654;21.250;2022-09-30T15:24:50;13.10;;;7.25;;
59310;SDS011;45078;51.654;21.250;2022-09-30T15:27:30;14.48;;;7.30;;
59310;SDS011;45078;51.654;21.250;2022-09-30T15:30:02;14.82;;;7.68;;
59310;SDS011;45078;51.654;21.250;2022-09-30T15:32:46;17.40;;;6.82;;
59310;SDS011;45078;51.654;21.250;2022-09-30T15:35:17;16.20;;;7.55;;
59310;SDS011;45078;51.654;21.250;2022-09-30T15:37:45;14.55;;;7.85;;
59310;SDS011;45078;51.654;21.250;2022-09-30T15:40:13;13.30;;;7.47;;
59310;SDS011;45078;51.654;21.250;2022-09-30T15:43:00;14.02;;;7.82;;
59310;SDS011;45078;51.654;21.250;2022-09-30T15:45:37;14.95;;;7.78;;
59310;SDS011;45078;51.654;21.250;2022-09-30T15:55:44;14.50;;;7.07;;
59310;SDS011;45078;51.654;21.250;2022-09-30T16:03:55;15.02;;;7.55;;
59310;SDS011;45078;51.654;21.250;2022-09-30T16:09:01;13.77;;;7.35;;
59310;SDS011;45078;51.654;21.250;2022-09-30T16:11:31;20.83;;;7.35;;
59310;SDS011;45078;51.654;21.250;2022-09-30T16:14:01;13.13;;;7.07;;
59310;SDS011;45078;51.654;21.250;2022-09-30T16:16:30;15.10;;;7.15;;
59310;SDS011;45078;51.654;21.250;2022-09-30T16:18:58;13.63;;;7.53;;
59310;SDS011;45078;51.654;21.250;2022-09-30T16:21:28;21.90;;;7.45;;
59310;SDS011;45078;51.654;21.250;2022-09-30T16:26:52;13.50;;;6.70;;
59310;SDS011;45078;51.654;21.250;2022-09-30T16:31:49;11.05;;;6.20;;
59310;SDS011;45078;51.654;21.250;2022-09-30T16:34:27;11.85;;;6.13;;
59310;SDS011;45078;51.654;21.250;2022-09-30T16:37:03;12.07;;;6.15;;
59310;SDS011;45078;51.654;21.250;2022-09-30T16:39:35;13.63;;;7.13;;
59310;SDS011;45078;51.654;21.250;2022-09-30T16:42:01;11.05;;;6.38;;
59310;SDS011;45078;51.654;21.250;2022-09-30T16:44:28;15.93;;;6.32;;
59310;SDS011;45078;51.654;21.250;2022-09-30T16:46:58;13.90;;;7.03;;
59310;SDS011;45078;51.654;21.250;2022-09-30T16:49:24;13.50;;;7.22;;
59310;SDS011;45078;51.654;21.250;2022-09-30T16:51:50;14.85;;;7.03;;
59310;SDS011;45078;51.654;21.250;2022-09-30T16:54:16;11.88;;;6.35;;
59310;SDS011;45078;51.654;21.250;2022-09-30T16:56:42;11.45;;;6.50;;
59310;SDS011;45078;51.654;21.250;2022-09-30T16:59:12;12.50;;;6.85;;
59310;SDS011;45078;51.654;21.250;2022-09-30T17:01:40;12.05;;;7.13;;
59310;SDS011;45078;51.654;21.250;2022-09-30T17:04:06;12.68;;;6.97;;
59310;SDS011;45078;51.654;21.250;2022-09-30T17:06:33;11.60;;;6.22;;
59310;SDS011;45078;51.654;21.250;2022-09-30T17:09:01;13.25;;;6.32;;
59310;SDS011;45078;51.654;21.250;2022-09-30T17:11:28;9.73;;;5.75;;
59310;SDS011;45078;51.654;21.250;2022-09-30T17:13:58;14.73;;;6.63;;
59310;SDS011;45078;51.654;21.250;2022-09-30T17:16:25;11.10;;;5.78;;
59310;SDS011;45078;51.654;21.250;2022-09-30T17:18:51;12.32;;;5.85;;
59310;SDS011;45078;51.654;21.250;2022-09-30T17:21:21;11.43;;;6.18;;
59310;SDS011;45078;51.654;21.250;2022-09-30T17:23:48;11.18;;;6.70;;
59310;SDS011;45078;51.654;21.250;2022-09-30T17:26:15;12.45;;;6.28;;
59310;SDS011;45078;51.654;21.250;2022-09-30T17:28:41;10.63;;;6.20;;
59310;SDS011;45078;51.654;21.250;2022-09-30T17:31:08;13.98;;;5.90;;
59310;SDS011;45078;51.654;21.250;2022-09-30T17:33:36;11.52;;;6.03;;
59310;SDS011;45078;51.654;21.250;2022-09-30T17:36:04;12.45;;;7.03;;
59310;SDS011;45078;51.654;21.250;2022-09-30T17:38:31;11.57;;;6.28;;
59310;SDS011;45078;51.654;21.250;2022-09-30T17:40:58;11.95;;;6.47;;
59310;SDS011;45078;51.654;21.250;2022-09-30T17:43:43;10.85;;;6.13;;
59310;SDS011;45078;51.654;21.250;2022-09-30T17:46:15;10.20;;;6.00;;
59310;SDS011;45078;51.654;21.250;2022-09-30T17:48:45;12.52;;;6.45;;
59310;SDS011;45078;51.654;21.250;2022-09-30T17:51:12;11.68;;;6.93;;
59310;SDS011;45078;51.654;21.250;2022-09-30T17:53:40;11.05;;;6.63;;
59310;SDS011;45078;51.654;21.250;2022-09-30T17:56:16;13.05;;;7.35;;
59310;SDS011;45078;51.654;21.250;2022-09-30T17:58:48;13.02;;;6.65;;
59310;SDS011;45078;51.654;21.250;2022-09-30T18:01:15;13.95;;;6.60;;
59310;SDS011;45078;51.654;21.250;2022-09-30T18:03:44;17.00;;;7.35;;
59310;SDS011;45078;51.654;21.250;2022-09-30T18:06:11;14.05;;;7.25;;
59310;SDS011;45078;51.654;21.250;2022-09-30T18:08:40;12.18;;;6.40;;
59310;SDS011;45078;51.654;21.250;2022-09-30T18:11:06;13.75;;;7.22;;
59310;SDS011;45078;51.654;21.250;2022-09-30T18:13:33;13.88;;;7.40;;
59310;SDS011;45078;51.654;21.250;2022-09-30T18:15:59;13.00;;;7.03;;
59310;SDS011;45078;51.654;21.250;2022-09-30T18:18:30;14.02;;;7.68;;
59310;SDS011;45078;51.654;21.250;2022-09-30T18:20:58;13.27;;;7.60;;
59310;SDS011;45078;51.654;21.250;2022-09-30T18:23:24;13.57;;;7.32;;
59310;SDS011;45078;51.654;21.250;2022-09-30T18:25:50;17.13;;;7.70;;
59310;SDS011;45078;51.654;21.250;2022-09-30T18:28:18;13.20;;;6.65;;
59310;SDS011;45078;51.654;21.250;2022-09-30T18:30:44;13.27;;;7.32;;
59310;SDS011;45078;51.654;21.250;2022-09-30T18:33:10;14.63;;;7.43;;
59310;SDS011;45078;51.654;21.250;2022-09-30T18:35:41;15.57;;;7.57;;
59310;SDS011;45078;51.654;21.250;2022-09-30T18:38:07;14.77;;;7.03;;
59310;SDS011;45078;51.654;21.250;2022-09-30T18:40:33;15.25;;;7.75;;
59310;SDS011;45078;51.654;21.250;2022-09-30T18:43:00;12.73;;;7.43;;
59310;SDS011;45078;51.654;21.250;2022-09-30T18:45:29;15.95;;;7.97;;
59310;SDS011;45078;51.654;21.250;2022-09-30T18:47:57;12.65;;;7.22;;
59310;SDS011;45078;51.654;21.250;2022-09-30T18:50:25;13.27;;;6.68;;
59310;SDS011;45078;51.654;21.250;2022-09-30T18:52:52;14.00;;;7.80;;
59310;SDS011;45078;51.654;21.250;2022-09-30T18:55:19;13.18;;;7.65;;
59310;SDS011;45078;51.654;21.250;2022-09-30T18:57:45;14.60;;;7.75;;
59310;SDS011;45078;51.654;21.250;2022-09-30T19:00:14;14.38;;;7.05;;